createdAt,value
2019-06-08T00:02:04.929Z,13.60
2019-06-08T00:04:31.173Z,13.60
2019-06-08T00:06:57.416Z,13.60
2019-06-08T00:09:24.107Z,13.60
2019-06-08T00:11:50.548Z,13.60
2019-06-08T00:14:17.430Z,13.60
2019-06-08T00:16:43.886Z,13.60
2019-06-08T00:19:10.145Z,13.50
2019-06-08T00:21:36.396Z,13.50
2019-06-08T00:24:02.831Z,13.60
2019-06-08T00:26:29.169Z,13.50
2019-06-08T00:28:55.404Z,13.50
2019-06-08T00:31:21.849Z,13.50
2019-06-08T00:33:48.203Z,13.40
2019-06-08T00:36:14.792Z,13.40
2019-06-08T00:38:41.109Z,13.30
2019-06-08T00:41:07.374Z,13.30
2019-06-08T00:43:33.625Z,13.30
2019-06-08T00:45:59.960Z,13.30
2019-06-08T00:48:26.413Z,13.20
2019-06-08T00:50:52.642Z,13.10
2019-06-08T00:53:19.727Z,13.10
2019-06-08T00:55:46.571Z,13.10
2019-06-08T00:58:12.910Z,13.10
2019-06-08T01:00:39.271Z,13.20
2019-06-08T01:03:05.508Z,13.20
2019-06-08T01:05:31.740Z,13.10
2019-06-08T01:07:58.067Z,13.10
2019-06-08T01:10:25.535Z,13.10
2019-06-08T01:12:52.057Z,13.00
2019-06-08T01:15:25.036Z,12.90
2019-06-08T01:18:01.583Z,12.80
2019-06-08T01:20:15.343Z,12.80
2019-06-08T01:22:41.757Z,12.80
2019-06-08T01:25:08.434Z,12.80
2019-06-08T01:27:34.761Z,12.70
2019-06-08T01:30:01.202Z,12.70
2019-06-08T01:32:28.553Z,12.70
2019-06-08T01:34:55.055Z,12.70
2019-06-08T01:37:22.852Z,12.60
2019-06-08T01:39:49.475Z,12.60
2019-06-08T01:42:15.739Z,12.60
2019-06-08T01:44:42.165Z,12.60
2019-06-08T01:47:08.656Z,12.60
2019-06-08T01:49:34.981Z,12.60
2019-06-08T01:52:01.199Z,12.60
2019-06-08T01:54:29.457Z,12.50
2019-06-08T01:56:55.570Z,12.60
2019-06-08T01:59:23.261Z,12.50
2019-06-08T02:01:49.752Z,12.50
2019-06-08T02:04:15.976Z,12.50
2019-06-08T02:06:42.322Z,12.60
2019-06-08T02:09:08.644Z,12.60
2019-06-08T02:11:35.027Z,12.70
2019-06-08T02:14:01.646Z,12.70
2019-06-08T02:16:29.624Z,12.70
2019-06-08T02:18:56.029Z,12.70
2019-06-08T02:21:22.297Z,12.70
2019-06-08T02:23:48.597Z,12.70
2019-06-08T02:26:14.835Z,12.80
2019-06-08T02:28:41.174Z,12.80
2019-06-08T02:31:07.514Z,12.80
2019-06-08T02:33:35.001Z,12.80
2019-06-08T02:36:01.810Z,12.80
2019-06-08T02:38:29.739Z,12.80
2019-06-08T02:40:56.201Z,12.80
2019-06-08T02:43:22.542Z,12.80
2019-06-08T02:45:49.007Z,12.80
2019-06-08T02:48:15.243Z,12.80
2019-06-08T02:50:54.076Z,12.80
2019-06-08T02:53:21.996Z,12.70
2019-06-08T02:55:49.337Z,12.70
2019-06-08T02:58:16.288Z,12.60
2019-06-08T03:00:47.212Z,12.60
2019-06-08T03:03:14.824Z,12.60
2019-06-08T03:05:41.183Z,12.60
2019-06-08T03:08:09.182Z,12.60
2019-06-08T03:10:37.116Z,12.60
2019-06-08T03:13:03.994Z,12.60
2019-06-08T03:15:34.335Z,12.60
2019-06-08T03:17:59.638Z,12.60
2019-06-08T03:20:25.974Z,12.60
2019-06-08T03:22:52.329Z,12.60
2019-06-08T03:25:18.653Z,12.60
2019-06-08T03:27:44.888Z,12.70
2019-06-08T03:30:17.742Z,12.70
2019-06-08T03:32:46.977Z,12.80
2019-06-08T03:35:08.105Z,12.80
2019-06-08T03:37:35.745Z,12.80
2019-06-08T03:40:03.284Z,12.90
2019-06-08T03:42:29.686Z,12.90
2019-06-08T03:44:57.117Z,12.90
2019-06-08T03:47:23.337Z,12.90
2019-06-08T03:49:56.703Z,13.00
2019-06-08T03:52:17.702Z,13.10
2019-06-08T03:54:45.253Z,13.10
2019-06-08T03:57:12.061Z,13.20
2019-06-08T03:59:38.603Z,13.30
2019-06-08T04:02:06.374Z,13.40
2019-06-08T04:04:32.614Z,13.40
2019-06-08T04:06:58.825Z,13.40
2019-06-08T04:09:25.062Z,13.40
2019-06-08T04:11:51.569Z,13.40
2019-06-08T04:14:17.899Z,13.40
2019-06-08T04:16:45.023Z,13.40
2019-06-08T04:19:12.349Z,13.50
2019-06-08T04:21:40.142Z,13.50
2019-06-08T04:24:06.788Z,13.60
2019-06-08T04:26:33.131Z,13.60
2019-06-08T04:28:59.438Z,13.70
2019-06-08T04:31:25.752Z,13.90
2019-06-08T04:33:52.009Z,13.90
2019-06-08T04:36:18.322Z,14.10
2019-06-08T04:38:45.731Z,14.10
2019-06-08T04:41:12.678Z,14.10
2019-06-08T04:43:40.411Z,14.00
2019-06-08T04:46:06.716Z,13.90
2019-06-08T04:48:33.066Z,13.80
2019-06-08T04:50:59.784Z,13.60
2019-06-08T04:53:26.110Z,13.50
2019-06-08T04:55:52.354Z,13.40
2019-06-08T04:58:18.572Z,13.40
2019-06-08T05:00:46.259Z,13.40
2019-06-08T05:03:13.037Z,13.40
2019-06-08T05:05:40.700Z,13.70
2019-06-08T05:08:07.378Z,14.10
2019-06-08T05:10:33.715Z,14.20
2019-06-08T05:13:00.026Z,14.40
2019-06-08T05:15:26.354Z,14.60
2019-06-08T05:17:52.707Z,14.70
2019-06-08T05:20:19.112Z,15.00
2019-06-08T05:22:45.646Z,15.20
2019-06-08T05:25:12.406Z,15.40
2019-06-08T05:27:39.358Z,15.50
2019-06-08T05:30:08.800Z,15.40
2019-06-08T05:32:35.381Z,15.30
2019-06-08T05:35:03.912Z,15.10
2019-06-08T05:37:30.154Z,15.10
2019-06-08T05:39:56.403Z,14.80
2019-06-08T05:42:22.613Z,14.30
2019-06-08T05:44:50.264Z,14.00
2019-06-08T05:47:16.775Z,13.90
2019-06-08T05:49:43.705Z,13.70
2019-06-08T05:52:10.001Z,13.70
2019-06-08T05:54:36.251Z,13.80
2019-06-08T05:57:02.460Z,14.20
2019-06-08T05:59:28.765Z,14.60
2019-06-08T06:01:54.999Z,15.00
2019-06-08T06:04:21.342Z,15.10
2019-06-08T06:06:49.222Z,15.10
2019-06-08T06:09:15.592Z,15.00
2019-06-08T06:11:42.862Z,15.10
2019-06-08T06:14:09.226Z,15.10
2019-06-08T06:16:35.557Z,15.10
2019-06-08T06:19:01.774Z,15.10
2019-06-08T06:21:28.086Z,15.10
2019-06-08T06:23:54.531Z,15.30
2019-06-08T06:26:20.749Z,15.50
2019-06-08T06:28:47.589Z,15.60
2019-06-08T06:31:14.011Z,15.60
2019-06-08T06:33:41.866Z,15.60
2019-06-08T06:36:08.346Z,15.80
2019-06-08T06:38:34.579Z,16.20
2019-06-08T06:41:00.898Z,16.60
2019-06-08T06:43:27.125Z,16.60
2019-06-08T06:45:53.373Z,16.40
2019-06-08T06:48:23.287Z,16.00
2019-06-08T06:50:48.359Z,15.70
2019-06-08T06:53:14.803Z,15.40
2019-06-08T06:55:41.013Z,15.00
2019-06-08T06:58:07.229Z,14.80
2019-06-08T07:00:33.567Z,14.60
2019-06-08T07:03:01.005Z,14.30
2019-06-08T07:05:27.221Z,14.10
2019-06-08T07:07:54.532Z,14.00
2019-06-08T07:10:20.885Z,14.10
2019-06-08T07:12:48.600Z,14.10
2019-06-08T07:15:18.817Z,14.10
2019-06-08T07:17:46.061Z,14.10
2019-06-08T07:20:12.567Z,14.10
2019-06-08T07:22:38.829Z,14.20
2019-06-08T07:25:05.450Z,14.10
2019-06-08T07:27:31.677Z,14.10
2019-06-08T07:29:59.014Z,14.10
2019-06-08T07:32:25.470Z,14.30
2019-06-08T07:34:53.088Z,14.40
2019-06-08T07:37:19.521Z,14.50
2019-06-08T07:39:45.745Z,14.50
2019-06-08T07:42:11.977Z,14.60
2019-06-08T07:44:38.349Z,14.70
2019-06-08T07:47:04.655Z,14.90
2019-06-08T07:49:31.038Z,14.90
2019-06-08T07:52:07.524Z,14.80
2019-06-08T07:54:25.609Z,14.80
2019-06-08T07:56:52.908Z,14.90
2019-06-08T07:59:19.307Z,15.00
2019-06-08T08:01:45.617Z,15.10
2019-06-08T08:04:11.829Z,15.20
2019-06-08T08:06:38.071Z,15.40
2019-06-08T08:09:05.994Z,15.60
2019-06-08T08:11:32.320Z,15.80
2019-06-08T08:13:59.111Z,15.90
2019-06-08T08:16:25.465Z,15.90
2019-06-08T08:18:51.747Z,15.90
2019-06-08T08:21:23.109Z,15.80
2019-06-08T08:23:47.833Z,15.80
2019-06-08T08:26:14.343Z,15.70
2019-06-08T08:28:40.597Z,15.60
2019-06-08T08:31:07.882Z,15.50
2019-06-08T08:33:35.129Z,15.40
2019-06-08T08:36:01.956Z,15.30
2019-06-08T08:38:28.490Z,15.30
2019-06-08T08:40:56.150Z,15.10
2019-06-08T08:43:23.158Z,15.00
2019-06-08T08:45:49.683Z,15.00
2019-06-08T08:48:25.507Z,15.00
2019-06-08T08:50:45.213Z,15.00
2019-06-08T08:53:11.429Z,15.00
2019-06-08T08:55:37.998Z,15.10
2019-06-08T08:58:04.487Z,15.30
2019-06-08T09:00:30.805Z,15.40
2019-06-08T09:03:17.153Z,15.50
2019-06-08T09:05:25.158Z,15.70
2019-06-08T09:07:52.549Z,15.80
2019-06-08T09:10:19.924Z,15.90
2019-06-08T09:12:48.363Z,16.00
2019-06-08T09:15:14.743Z,16.00
2019-06-08T09:17:41.041Z,16.10
2019-06-08T09:20:11.040Z,15.90
2019-06-08T09:22:50.193Z,15.90
2019-06-08T09:25:05.081Z,15.70
2019-06-08T09:27:31.397Z,15.60
2019-06-08T09:30:00.883Z,15.50
2019-06-08T09:32:28.078Z,15.50
2019-06-08T09:34:54.665Z,15.50
2019-06-08T09:37:21.005Z,15.50
2019-06-08T09:39:48.276Z,15.40
2019-06-08T09:42:14.801Z,15.20
2019-06-08T09:44:41.030Z,15.10
2019-06-08T09:47:12.093Z,15.10
2019-06-08T09:49:37.547Z,15.10
2019-06-08T09:52:05.169Z,15.00
2019-06-08T09:54:31.721Z,14.90
2019-06-08T09:57:00.940Z,14.80
2019-06-08T09:59:28.486Z,14.70
2019-06-08T10:01:55.613Z,14.60
2019-06-08T10:04:25.588Z,14.50
2019-06-08T10:06:51.666Z,14.40
2019-06-08T10:09:18.614Z,14.40
2019-06-08T10:11:45.149Z,14.30
2019-06-08T10:14:12.736Z,14.30
2019-06-08T10:16:39.328Z,14.30
2019-06-08T10:19:07.862Z,14.40
2019-06-08T10:21:33.787Z,14.40
2019-06-08T10:24:02.709Z,14.40
2019-06-08T10:26:28.237Z,14.30
2019-06-08T10:28:58.707Z,14.40
2019-06-08T10:31:35.550Z,14.40
2019-06-08T10:33:51.818Z,14.40
2019-06-08T10:36:18.352Z,14.40
2019-06-08T10:38:44.821Z,14.40
2019-06-08T10:41:18.927Z,14.40
2019-06-08T10:43:40.985Z,14.40
2019-06-08T10:46:14.751Z,14.40
2019-06-08T10:48:37.811Z,14.40
2019-06-08T10:51:05.246Z,14.30
2019-06-08T10:53:45.164Z,14.30
2019-06-08T10:56:01.266Z,14.30
2019-06-08T10:58:28.340Z,14.20
2019-06-08T11:00:54.754Z,14.10
2019-06-08T11:03:21.078Z,14.10
2019-06-08T11:05:48.328Z,14.00
2019-06-08T11:08:15.714Z,13.90
2019-06-08T11:10:42.045Z,13.70
2019-06-08T11:13:14.509Z,13.50
2019-06-08T11:15:37.849Z,13.50
2019-06-08T11:18:06.914Z,13.40
2019-06-08T11:20:32.483Z,13.40
2019-06-08T11:23:00.736Z,13.40
2019-06-08T11:25:28.052Z,13.40
2019-06-08T11:27:55.255Z,13.40
2019-06-08T11:30:26.781Z,13.40
2019-06-08T11:32:49.802Z,13.40
2019-06-08T11:35:17.699Z,13.40
2019-06-08T11:37:44.125Z,13.50
2019-06-08T11:40:12.535Z,13.40
2019-06-08T11:42:38.934Z,13.40
2019-06-08T11:45:10.866Z,13.30
2019-06-08T11:47:39.098Z,13.40
2019-06-08T11:50:07.289Z,13.50
2019-06-08T11:52:34.055Z,13.60
2019-06-08T11:55:02.583Z,13.60
2019-06-08T11:57:28.969Z,13.60
2019-06-08T11:59:58.356Z,13.60
2019-06-08T12:02:24.285Z,13.50
2019-06-08T12:04:50.509Z,13.30
2019-06-08T12:07:16.733Z,13.30
2019-06-08T12:09:43.177Z,13.20
2019-06-08T12:12:16.190Z,13.20
2019-06-08T12:14:40.086Z,13.30
2019-06-08T12:17:08.923Z,13.30
2019-06-08T12:19:33.925Z,13.20
2019-06-08T12:22:00.148Z,13.20
2019-06-08T12:24:40.906Z,13.20
2019-06-08T12:27:00.293Z,13.30
2019-06-08T12:29:22.630Z,13.30
2019-06-08T12:31:48.949Z,13.30
2019-06-08T12:34:18.320Z,13.30
2019-06-08T12:36:43.877Z,13.30
2019-06-08T12:39:10.205Z,13.30
2019-06-08T12:41:37.780Z,13.40
2019-06-08T12:44:04.337Z,13.50
2019-06-08T12:46:30.581Z,13.50
2019-06-08T12:48:58.267Z,13.50
2019-06-08T12:51:24.713Z,13.50
2019-06-08T12:53:52.071Z,13.40
2019-06-08T12:56:22.251Z,13.40
2019-06-08T12:58:47.624Z,13.40
2019-06-08T13:01:14.535Z,13.50
2019-06-08T13:03:40.883Z,13.50
2019-06-08T13:06:08.855Z,13.70
2019-06-08T13:08:35.385Z,13.70
2019-06-08T13:11:01.702Z,13.70
2019-06-08T13:13:29.026Z,13.70
2019-06-08T13:15:55.275Z,13.60
2019-06-08T13:18:23.389Z,13.50
2019-06-08T13:20:51.814Z,13.50
2019-06-08T13:23:19.622Z,13.40
2019-06-08T13:25:48.083Z,13.30
2019-06-08T13:28:18.401Z,13.30
2019-06-08T13:30:42.205Z,13.30
2019-06-08T13:33:08.497Z,13.40
2019-06-08T13:35:34.809Z,13.40
2019-06-08T13:38:01.050Z,13.40
2019-06-08T13:40:27.271Z,13.50
2019-06-08T13:42:53.576Z,13.50
2019-06-08T13:45:21.661Z,13.50
2019-06-08T13:47:50.217Z,13.60
2019-06-08T13:50:19.048Z,13.60
2019-06-08T13:52:44.443Z,13.60
2019-06-08T13:55:10.961Z,13.60
2019-06-08T13:57:37.896Z,13.70
2019-06-08T14:00:08.074Z,13.70
2019-06-08T14:02:34.584Z,13.60
2019-06-08T14:05:00.865Z,13.60
2019-06-08T14:07:31.785Z,13.60
2019-06-08T14:09:58.165Z,13.70
2019-06-08T14:12:25.580Z,13.70
2019-06-08T14:14:52.219Z,13.60
2019-06-08T14:17:20.900Z,13.60
2019-06-08T14:19:48.304Z,13.60
2019-06-08T14:22:14.785Z,13.60
2019-06-08T14:24:41.012Z,13.60
2019-06-08T14:27:08.254Z,13.60
2019-06-08T14:29:34.601Z,13.60
2019-06-08T14:32:00.917Z,13.70
2019-06-08T14:34:29.468Z,13.80
2019-06-08T14:37:15.201Z,13.90
2019-06-08T14:39:41.426Z,13.90
2019-06-08T14:42:08.353Z,13.80
2019-06-08T14:44:34.889Z,13.80
2019-06-08T14:47:13.417Z,13.80
2019-06-08T14:49:42.561Z,13.80
2019-06-08T14:52:10.842Z,13.80
2019-06-08T14:54:38.608Z,13.70
2019-06-08T14:57:04.950Z,13.70
2019-06-08T14:59:31.806Z,13.70
2019-06-08T15:01:58.208Z,13.70
2019-06-08T15:04:28.421Z,13.60
2019-06-08T15:06:52.678Z,13.60
2019-06-08T15:09:19.426Z,13.60
2019-06-08T15:11:47.934Z,13.50
2019-06-08T15:14:14.090Z,13.50
2019-06-08T15:16:41.759Z,13.50
2019-06-08T15:19:08.327Z,13.50
2019-06-08T15:21:34.651Z,13.50
2019-06-08T15:24:00.864Z,13.50
2019-06-08T15:26:36.673Z,13.50
2019-06-08T15:28:55.233Z,13.50
2019-06-08T15:31:21.554Z,13.50
2019-06-08T15:33:48.316Z,13.40
2019-06-08T15:36:14.722Z,13.40
2019-06-08T15:38:41.039Z,13.50
2019-06-08T15:41:07.818Z,13.60
2019-06-08T15:43:37.607Z,13.70
2019-06-08T15:46:03.317Z,13.90
2019-06-08T15:48:32.184Z,14.20
2019-06-08T15:50:58.390Z,14.50
2019-06-08T15:53:24.894Z,14.80
2019-06-08T15:55:51.554Z,15.00
2019-06-08T15:58:18.302Z,15.20
2019-06-08T16:00:44.581Z,15.30
2019-06-08T16:03:10.908Z,15.30
2019-06-08T16:05:37.149Z,15.30
2019-06-08T16:08:03.554Z,15.40
2019-06-08T16:10:30.260Z,15.30
2019-06-08T16:12:56.715Z,15.30
2019-06-08T16:15:22.933Z,15.30
2019-06-08T16:17:49.162Z,15.30
2019-06-08T16:20:15.481Z,15.20
2019-06-08T16:22:41.813Z,15.20
2019-06-08T16:25:08.136Z,15.10
2019-06-08T16:27:34.358Z,15.10
2019-06-08T16:30:00.585Z,15.00
2019-06-08T16:32:27.408Z,14.90
2019-06-08T16:34:53.841Z,15.00
2019-06-08T16:37:20.067Z,15.10
2019-06-08T16:39:46.289Z,15.10
2019-06-08T16:42:12.510Z,15.20
2019-06-08T16:44:38.942Z,15.30
2019-06-08T16:47:05.182Z,15.30
2019-06-08T16:49:31.406Z,15.40
2019-06-08T16:51:57.627Z,15.40
2019-06-08T16:54:23.873Z,15.40
2019-06-08T16:56:50.086Z,15.40
2019-06-08T16:59:16.509Z,15.40
2019-06-08T17:01:42.881Z,15.30
2019-06-08T17:04:09.104Z,15.40
2019-06-08T17:06:35.347Z,15.40
2019-06-08T17:09:01.679Z,15.40
2019-06-08T17:11:29.773Z,15.40
2019-06-08T17:13:56.201Z,15.30
2019-06-08T17:16:22.453Z,15.30
2019-06-08T17:18:48.661Z,15.30
2019-06-08T17:21:15.082Z,15.20
2019-06-08T17:23:41.420Z,15.20
2019-06-08T17:26:07.633Z,15.10
2019-06-08T17:28:35.046Z,15.10
2019-06-08T17:31:01.720Z,15.00
2019-06-08T17:33:28.029Z,15.00
2019-06-08T17:35:54.244Z,14.90
2019-06-08T17:38:20.613Z,14.80
2019-06-08T17:40:46.937Z,14.70
2019-06-08T17:43:13.250Z,14.70
2019-06-08T17:45:41.073Z,14.70
2019-06-08T17:48:07.469Z,14.60
2019-06-08T17:50:34.702Z,14.60
2019-06-08T17:53:01.439Z,14.60
2019-06-08T17:55:27.652Z,14.60
2019-06-08T17:57:55.069Z,14.60
2019-06-08T18:00:21.924Z,14.60
2019-06-08T18:02:48.425Z,14.50
2019-06-08T18:05:17.748Z,14.40
2019-06-08T18:07:44.350Z,14.20
2019-06-08T18:10:12.014Z,14.00
2019-06-08T18:12:41.051Z,13.90
2019-06-08T18:15:07.613Z,13.70
2019-06-08T18:17:39.139Z,13.60
2019-06-08T18:20:11.137Z,13.50
2019-06-08T18:22:39.703Z,13.50
2019-06-08T18:25:07.709Z,13.40
2019-06-08T18:27:34.639Z,13.40
2019-06-08T18:30:08.060Z,13.40
2019-06-08T18:32:29.088Z,13.50
2019-06-08T18:34:57.311Z,13.60
2019-06-08T18:37:23.416Z,13.70
2019-06-08T18:39:49.844Z,13.70
2019-06-08T18:42:17.930Z,13.70
2019-06-08T18:44:45.943Z,13.60
2019-06-08T18:47:12.745Z,13.60
2019-06-08T18:49:41.663Z,13.60
2019-06-08T18:52:08.122Z,13.60
2019-06-08T18:54:35.418Z,13.60
2019-06-08T18:57:05.943Z,13.60
2019-06-08T18:59:30.806Z,13.70
2019-06-08T19:01:57.017Z,13.70
2019-06-08T19:04:23.258Z,13.60
2019-06-08T19:06:50.127Z,13.60
2019-06-08T19:09:17.190Z,13.50
2019-06-08T19:11:43.652Z,13.40
2019-06-08T19:14:11.400Z,13.40
2019-06-08T19:16:40.835Z,13.30
2019-06-08T19:19:07.416Z,13.20
2019-06-08T19:21:33.847Z,13.20
2019-06-08T19:24:00.057Z,13.20
2019-06-08T19:26:28.172Z,13.10
2019-06-08T19:28:54.451Z,13.20
2019-06-08T19:31:23.730Z,13.10
2019-06-08T19:33:53.480Z,13.10
2019-06-08T19:36:18.221Z,13.00
2019-06-08T19:38:44.727Z,13.00
2019-06-08T19:41:12.805Z,13.00
2019-06-08T19:43:41.479Z,13.00
2019-06-08T19:46:07.271Z,13.00
2019-06-08T19:48:33.752Z,12.90
2019-06-08T19:51:00.002Z,12.90
2019-06-08T19:53:28.171Z,12.90
2019-06-08T19:55:54.387Z,12.90
2019-06-08T19:58:20.597Z,12.90
2019-06-08T20:00:51.854Z,12.80
2019-06-08T20:03:14.982Z,12.90
2019-06-08T20:05:41.319Z,12.90
2019-06-08T20:08:08.148Z,12.80
2019-06-08T20:10:34.586Z,12.90
2019-06-08T20:13:00.797Z,12.90
2019-06-08T20:15:27.020Z,12.80
2019-06-08T20:17:54.068Z,12.80
2019-06-08T20:20:20.502Z,12.90
2019-06-08T20:22:49.015Z,12.90
2019-06-08T20:25:17.200Z,12.90
2019-06-08T20:27:43.326Z,12.90
2019-06-08T20:30:12.269Z,12.90
2019-06-08T20:32:38.151Z,12.80
2019-06-08T20:35:07.964Z,12.80
2019-06-08T20:37:34.001Z,12.80
2019-06-08T20:40:10.177Z,12.70
2019-06-08T20:42:28.872Z,12.70
2019-06-08T20:44:57.638Z,12.70
2019-06-08T20:47:23.481Z,12.60
2019-06-08T20:49:51.861Z,12.60
2019-06-08T20:52:18.097Z,12.60
2019-06-08T20:54:44.656Z,12.50
2019-06-08T20:57:10.946Z,12.50
2019-06-08T20:59:37.639Z,12.50
2019-06-08T21:02:08.172Z,12.40
2019-06-08T21:04:33.753Z,12.40
2019-06-08T21:07:00.086Z,12.40
2019-06-08T21:09:27.821Z,12.30
2019-06-08T21:11:55.693Z,12.30
2019-06-08T21:14:22.453Z,12.30
2019-06-08T21:16:50.834Z,12.30
2019-06-08T21:19:19.029Z,12.30
2019-06-08T21:21:46.078Z,12.30
2019-06-08T21:24:13.390Z,12.20
2019-06-08T21:26:39.698Z,12.20
2019-06-08T21:29:08.249Z,12.20
2019-06-08T21:31:34.065Z,12.20
2019-06-08T21:34:00.970Z,12.20
2019-06-08T21:36:27.399Z,12.20
2019-06-08T21:38:55.683Z,12.20
2019-06-08T21:41:23.889Z,12.20
2019-06-08T21:43:53.037Z,12.20
2019-06-08T21:46:18.261Z,12.20
2019-06-08T21:48:44.568Z,12.20
2019-06-08T21:51:10.797Z,12.10
2019-06-08T21:53:38.193Z,12.10
2019-06-08T21:56:04.769Z,12.10
2019-06-08T21:58:31.007Z,12.10
2019-06-08T22:00:59.689Z,12.10
2019-06-08T22:03:28.056Z,12.10
2019-06-08T22:05:53.966Z,12.10
2019-06-08T22:08:20.279Z,12.10
2019-06-08T22:10:47.130Z,12.10
2019-06-08T22:13:13.678Z,12.00
2019-06-08T22:15:40.071Z,12.00
2019-06-08T22:18:08.020Z,12.00
2019-06-08T22:20:34.551Z,12.00
2019-06-08T22:23:01.008Z,12.00
2019-06-08T22:25:27.871Z,12.00
2019-06-08T22:27:55.980Z,12.00
2019-06-08T22:30:38.328Z,11.90
2019-06-08T22:32:52.293Z,11.90
2019-06-08T22:35:19.378Z,11.90
2019-06-08T22:37:47.917Z,11.90
2019-06-08T22:40:14.048Z,11.90
2019-06-08T22:42:40.277Z,11.90
2019-06-08T22:45:08.522Z,11.90
2019-06-08T22:47:34.702Z,11.90
2019-06-08T22:50:02.500Z,11.90
2019-06-08T22:52:29.050Z,11.90
2019-06-08T22:54:58.423Z,11.90
2019-06-08T22:57:23.445Z,11.90
2019-06-08T22:59:49.681Z,11.90
2019-06-08T23:02:18.118Z,11.90
2019-06-08T23:04:44.013Z,11.90
2019-06-08T23:07:23.466Z,11.80
2019-06-08T23:09:38.519Z,11.90
2019-06-08T23:12:08.719Z,11.90
2019-06-08T23:14:32.957Z,11.80
2019-06-08T23:17:01.213Z,11.80
2019-06-08T23:19:27.293Z,11.80
2019-06-08T23:21:53.525Z,11.90
2019-06-08T23:24:19.744Z,11.90
2019-06-08T23:26:47.941Z,11.90
2019-06-08T23:29:14.102Z,11.90
2019-06-08T23:31:40.321Z,11.90
2019-06-08T23:34:11.323Z,11.80
2019-06-08T23:36:48.352Z,11.80
2019-06-08T23:39:07.236Z,11.90
2019-06-08T23:41:33.621Z,11.90
2019-06-08T23:43:59.873Z,11.80
2019-06-08T23:46:27.351Z,11.90
2019-06-08T23:48:53.861Z,11.90
2019-06-08T23:51:20.093Z,11.90
2019-06-08T23:53:47.837Z,11.90
2019-06-08T23:56:14.233Z,11.90
2019-06-08T23:58:40.530Z,11.80
